sensor_id;sensor_type;location;lat;lon;timestamp;temperature;humidity
4364;DHT22;15337;48.202;12.770;2022-09-12T00:00:34;14.30;99.90
4364;DHT22;15337;48.202;12.770;2022-09-12T00:03:00;14.30;99.90
4364;DHT22;15337;48.202;12.770;2022-09-12T00:05:29;14.20;99.90
4364;DHT22;15337;48.202;12.770;2022-09-12T00:07:58;14.20;99.90
4364;DHT22;15337;48.202;12.770;2022-09-12T00:10:25;14.20;99.90
4364;DHT22;15337;48.202;12.770;2022-09-12T00:12:52;14.20;99.90
4364;DHT22;15337;48.202;12.770;2022-09-12T00:15:19;14.10;99.90
4364;DHT22;15337;48.202;12.770;2022-09-12T00:17:45;14.10;99.90
4364;DHT22;15337;48.202;12.770;2022-09-12T00:20:12;14.10;99.90
4364;DHT22;15337;48.202;12.770;2022-09-12T00:22:41;14.10;99.90
4364;DHT22;15337;48.202;12.770;2022-09-12T00:25:07;14.00;99.90
4364;DHT22;15337;48.202;12.770;2022-09-12T00:27:34;14.00;99.90
4364;DHT22;15337;48.202;12.770;2022-09-12T00:30:01;14.00;99.90
4364;DHT22;15337;48.202;12.770;2022-09-12T00:32:28;14.00;99.90
4364;DHT22;15337;48.202;12.770;2022-09-12T00:34:55;13.90;99.90
4364;DHT22;15337;48.202;12.770;2022-09-12T00:37:22;13.90;99.90
4364;DHT22;15337;48.202;12.770;2022-09-12T00:39:50;13.90;99.90
4364;DHT22;15337;48.202;12.770;2022-09-12T00:42:17;13.90;99.90
4364;DHT22;15337;48.202;12.770;2022-09-12T00:44:49;13.80;99.90
4364;DHT22;15337;48.202;12.770;2022-09-12T00:47:21;13.80;99.90
4364;DHT22;15337;48.202;12.770;2022-09-12T00:49:51;13.80;99.90
4364;DHT22;15337;48.202;12.770;2022-09-12T00:52:23;13.70;99.90
4364;DHT22;15337;48.202;12.770;2022-09-12T00:54:56;13.70;99.90
4364;DHT22;15337;48.202;12.770;2022-09-12T00:57:28;13.70;99.90
4364;DHT22;15337;48.202;12.770;2022-09-12T00:59:58;13.60;99.90
4364;DHT22;15337;48.202;12.770;2022-09-12T01:02:28;13.60;99.90
4364;DHT22;15337;48.202;12.770;2022-09-12T01:04:55;13.60;99.90
4364;DHT22;15337;48.202;12.770;2022-09-12T01:07:22;13.50;99.90
4364;DHT22;15337;48.202;12.770;2022-09-12T01:09:49;13.50;99.90
4364;DHT22;15337;48.202;12.770;2022-09-12T01:12:17;13.50;99.90
4364;DHT22;15337;48.202;12.770;2022-09-12T01:14:44;13.40;99.90
4364;DHT22;15337;48.202;12.770;2022-09-12T01:17:12;13.40;99.90
4364;DHT22;15337;48.202;12.770;2022-09-12T01:20:10;13.40;99.90
4364;DHT22;15337;48.202;12.770;2022-09-12T01:22:59;13.30;99.90
4364;DHT22;15337;48.202;12.770;2022-09-12T01:25:35;13.30;99.90
4364;DHT22;15337;48.202;12.770;2022-09-12T01:28:24;13.30;99.90
4364;DHT22;15337;48.202;12.770;2022-09-12T01:31:02;13.20;99.90
4364;DHT22;15337;48.202;12.770;2022-09-12T01:33:35;13.20;99.90
4364;DHT22;15337;48.202;12.770;2022-09-12T01:38:59;13.20;99.90
4364;DHT22;15337;48.202;12.770;2022-09-12T01:41:31;13.20;99.90
4364;DHT22;15337;48.202;12.770;2022-09-12T01:44:05;13.10;99.90
4364;DHT22;15337;48.202;12.770;2022-09-12T01:46:41;13.10;99.90
4364;DHT22;15337;48.202;12.770;2022-09-12T01:49:14;13.10;99.90
4364;DHT22;15337;48.202;12.770;2022-09-12T01:51:48;13.00;99.90
4364;DHT22;15337;48.202;12.770;2022-09-12T01:54:20;13.00;99.90
4364;DHT22;15337;48.202;12.770;2022-09-12T01:56:50;12.90;99.90
4364;DHT22;15337;48.202;12.770;2022-09-12T01:59:22;12.90;99.90
4364;DHT22;15337;48.202;12.770;2022-09-12T02:01:54;12.80;99.90
4364;DHT22;15337;48.202;12.770;2022-09-12T02:04:26;12.80;99.90
4364;DHT22;15337;48.202;12.770;2022-09-12T02:06:57;12.70;99.90
4364;DHT22;15337;48.202;12.770;2022-09-12T02:09:28;12.70;99.90
4364;DHT22;15337;48.202;12.770;2022-09-12T02:12:00;12.70;99.90
4364;DHT22;15337;48.202;12.770;2022-09-12T02:14:32;12.70;99.90
4364;DHT22;15337;48.202;12.770;2022-09-12T02:17:07;12.60;99.90
4364;DHT22;15337;48.202;12.770;2022-09-12T02:19:38;12.60;99.90
4364;DHT22;15337;48.202;12.770;2022-09-12T02:22:11;12.60;99.90
4364;DHT22;15337;48.202;12.770;2022-09-12T02:24:41;12.50;99.90
4364;DHT22;15337;48.202;12.770;2022-09-12T02:27:11;12.40;99.90
4364;DHT22;15337;48.202;12.770;2022-09-12T02:29:40;12.40;99.90
4364;DHT22;15337;48.202;12.770;2022-09-12T02:32:15;12.40;99.90
4364;DHT22;15337;48.202;12.770;2022-09-12T02:34:51;12.40;99.90
4364;DHT22;15337;48.202;12.770;2022-09-12T02:37:24;12.30;99.90
4364;DHT22;15337;48.202;12.770;2022-09-12T02:39:56;12.30;99.90
4364;DHT22;15337;48.202;12.770;2022-09-12T02:42:23;12.20;99.90
4364;DHT22;15337;48.202;12.770;2022-09-12T02:44:52;12.10;99.90
4364;DHT22;15337;48.202;12.770;2022-09-12T02:47:25;12.10;99.90
4364;DHT22;15337;48.202;12.770;2022-09-12T02:49:54;12.10;99.90
4364;DHT22;15337;48.202;12.770;2022-09-12T02:52:22;12.00;99.90
4364;DHT22;15337;48.202;12.770;2022-09-12T02:54:49;12.00;99.90
4364;DHT22;15337;48.202;12.770;2022-09-12T02:57:17;12.00;99.90
4364;DHT22;15337;48.202;12.770;2022-09-12T02:59:45;11.90;99.90
4364;DHT22;15337;48.202;12.770;2022-09-12T03:02:25;11.90;99.90
4364;DHT22;15337;48.202;12.770;2022-09-12T03:05:10;11.90;99.90
4364;DHT22;15337;48.202;12.770;2022-09-12T03:08:04;11.90;99.90
4364;DHT22;15337;48.202;12.770;2022-09-12T03:10:41;11.80;99.90
4364;DHT22;15337;48.202;12.770;2022-09-12T03:13:19;11.80;99.90
4364;DHT22;15337;48.202;12.770;2022-09-12T03:15:59;11.70;99.90
4364;DHT22;15337;48.202;12.770;2022-09-12T03:18:41;11.70;99.90
4364;DHT22;15337;48.202;12.770;2022-09-12T03:21:14;11.60;99.90
4364;DHT22;15337;48.202;12.770;2022-09-12T03:23:56;11.60;99.90
4364;DHT22;15337;48.202;12.770;2022-09-12T03:26:30;11.50;99.90
4364;DHT22;15337;48.202;12.770;2022-09-12T03:28:59;11.50;99.90
4364;DHT22;15337;48.202;12.770;2022-09-12T03:31:27;11.40;99.90
4364;DHT22;15337;48.202;12.770;2022-09-12T03:33:55;11.40;99.90
4364;DHT22;15337;48.202;12.770;2022-09-12T03:36:25;11.30;99.90
4364;DHT22;15337;48.202;12.770;2022-09-12T03:38:53;11.30;99.90
4364;DHT22;15337;48.202;12.770;2022-09-12T03:41:20;11.30;99.90
4364;DHT22;15337;48.202;12.770;2022-09-12T03:43:47;11.20;99.90
4364;DHT22;15337;48.202;12.770;2022-09-12T03:46:14;11.20;99.90
4364;DHT22;15337;48.202;12.770;2022-09-12T03:48:41;11.20;99.90
4364;DHT22;15337;48.202;12.770;2022-09-12T03:51:09;11.20;99.90
4364;DHT22;15337;48.202;12.770;2022-09-12T03:53:36;11.20;99.90
4364;DHT22;15337;48.202;12.770;2022-09-12T03:56:05;11.10;99.90
4364;DHT22;15337;48.202;12.770;2022-09-12T03:58:32;11.00;99.90
4364;DHT22;15337;48.202;12.770;2022-09-12T04:01:05;11.00;99.90
4364;DHT22;15337;48.202;12.770;2022-09-12T04:03:32;10.90;99.90
4364;DHT22;15337;48.202;12.770;2022-09-12T04:05:58;10.90;99.90
4364;DHT22;15337;48.202;12.770;2022-09-12T04:08:27;10.90;99.90
4364;DHT22;15337;48.202;12.770;2022-09-12T04:10:54;10.90;99.90
4364;DHT22;15337;48.202;12.770;2022-09-12T04:13:20;10.90;99.90
4364;DHT22;15337;48.202;12.770;2022-09-12T04:15:55;10.80;99.90
4364;DHT22;15337;48.202;12.770;2022-09-12T04:18:22;10.80;99.90
4364;DHT22;15337;48.202;12.770;2022-09-12T04:20:49;10.70;99.90
4364;DHT22;15337;48.202;12.770;2022-09-12T04:23:16;10.70;99.90
4364;DHT22;15337;48.202;12.770;2022-09-12T04:25:44;10.70;99.90
4364;DHT22;15337;48.202;12.770;2022-09-12T04:28:18;10.60;99.90
4364;DHT22;15337;48.202;12.770;2022-09-12T04:30:45;10.60;99.90
4364;DHT22;15337;48.202;12.770;2022-09-12T04:33:12;10.60;99.90
4364;DHT22;15337;48.202;12.770;2022-09-12T04:35:39;10.60;99.90
4364;DHT22;15337;48.202;12.770;2022-09-12T04:38:06;10.50;99.90
4364;DHT22;15337;48.202;12.770;2022-09-12T04:40:33;10.50;99.90
4364;DHT22;15337;48.202;12.770;2022-09-12T04:43:02;10.50;99.90
4364;DHT22;15337;48.202;12.770;2022-09-12T04:45:29;10.50;99.90
4364;DHT22;15337;48.202;12.770;2022-09-12T04:47:56;10.40;99.90
4364;DHT22;15337;48.202;12.770;2022-09-12T04:50:23;10.40;99.90
4364;DHT22;15337;48.202;12.770;2022-09-12T04:52:50;10.40;99.90
4364;DHT22;15337;48.202;12.770;2022-09-12T04:55:17;10.40;99.90
4364;DHT22;15337;48.202;12.770;2022-09-12T04:57:43;10.40;99.90
4364;DHT22;15337;48.202;12.770;2022-09-12T05:00:13;10.40;99.90
4364;DHT22;15337;48.202;12.770;2022-09-12T05:02:40;10.40;99.90
4364;DHT22;15337;48.202;12.770;2022-09-12T05:05:08;10.30;99.90
4364;DHT22;15337;48.202;12.770;2022-09-12T05:07:36;10.30;99.90
4364;DHT22;15337;48.202;12.770;2022-09-12T05:10:03;10.30;99.90
4364;DHT22;15337;48.202;12.770;2022-09-12T05:12:30;10.30;99.90
4364;DHT22;15337;48.202;12.770;2022-09-12T05:14:57;10.40;99.90
4364;DHT22;15337;48.202;12.770;2022-09-12T05:17:27;10.40;99.90
4364;DHT22;15337;48.202;12.770;2022-09-12T05:19:54;10.40;99.90
4364;DHT22;15337;48.202;12.770;2022-09-12T05:22:21;10.40;99.90
4364;DHT22;15337;48.202;12.770;2022-09-12T05:24:48;10.40;99.90
4364;DHT22;15337;48.202;12.770;2022-09-12T05:27:15;10.40;99.90
4364;DHT22;15337;48.202;12.770;2022-09-12T05:29:42;10.50;99.90
4364;DHT22;15337;48.202;12.770;2022-09-12T05:32:09;10.50;99.90
4364;DHT22;15337;48.202;12.770;2022-09-12T05:34:38;10.50;99.90
4364;DHT22;15337;48.202;12.770;2022-09-12T05:37:05;10.60;99.90
4364;DHT22;15337;48.202;12.770;2022-09-12T05:39:32;10.60;99.90
4364;DHT22;15337;48.202;12.770;2022-09-12T05:41:59;10.60;99.90
4364;DHT22;15337;48.202;12.770;2022-09-12T05:44:26;10.60;99.90
4364;DHT22;15337;48.202;12.770;2022-09-12T05:46:53;10.70;99.90
4364;DHT22;15337;48.202;12.770;2022-09-12T05:49:20;10.80;99.90
4364;DHT22;15337;48.202;12.770;2022-09-12T05:51:49;10.80;99.90
4364;DHT22;15337;48.202;12.770;2022-09-12T05:54:18;10.90;99.90
4364;DHT22;15337;48.202;12.770;2022-09-12T05:56:46;10.90;99.90
4364;DHT22;15337;48.202;12.770;2022-09-12T05:59:14;10.90;99.90
4364;DHT22;15337;48.202;12.770;2022-09-12T06:01:42;11.00;99.90
4364;DHT22;15337;48.202;12.770;2022-09-12T06:04:09;11.00;99.90
4364;DHT22;15337;48.202;12.770;2022-09-12T06:06:38;11.10;99.90
4364;DHT22;15337;48.202;12.770;2022-09-12T06:09:08;11.10;99.90
4364;DHT22;15337;48.202;12.770;2022-09-12T06:11:36;11.20;99.90
4364;DHT22;15337;48.202;12.770;2022-09-12T06:14:06;11.30;99.90
4364;DHT22;15337;48.202;12.770;2022-09-12T06:16:34;11.30;99.90
4364;DHT22;15337;48.202;12.770;2022-09-12T06:19:03;11.40;99.90
4364;DHT22;15337;48.202;12.770;2022-09-12T06:21:31;11.50;99.90
4364;DHT22;15337;48.202;12.770;2022-09-12T06:24:00;11.60;99.90
4364;DHT22;15337;48.202;12.770;2022-09-12T06:26:29;11.70;99.90
4364;DHT22;15337;48.202;12.770;2022-09-12T06:28:58;11.80;99.90
4364;DHT22;15337;48.202;12.770;2022-09-12T06:31:27;11.90;99.90
4364;DHT22;15337;48.202;12.770;2022-09-12T06:33:55;12.00;99.90
4364;DHT22;15337;48.202;12.770;2022-09-12T06:36:24;12.10;99.90
4364;DHT22;15337;48.202;12.770;2022-09-12T06:38:55;12.20;99.90
4364;DHT22;15337;48.202;12.770;2022-09-12T06:41:23;12.30;99.90
4364;DHT22;15337;48.202;12.770;2022-09-12T06:43:52;12.40;99.90
4364;DHT22;15337;48.202;12.770;2022-09-12T06:46:19;12.50;99.90
4364;DHT22;15337;48.202;12.770;2022-09-12T06:48:47;12.60;99.90
4364;DHT22;15337;48.202;12.770;2022-09-12T06:51:15;12.70;99.90
4364;DHT22;15337;48.202;12.770;2022-09-12T06:53:43;12.80;99.90
4364;DHT22;15337;48.202;12.770;2022-09-12T06:56:11;13.00;99.90
4364;DHT22;15337;48.202;12.770;2022-09-12T06:58:39;13.10;99.90
4364;DHT22;15337;48.202;12.770;2022-09-12T07:01:09;13.30;99.90
4364;DHT22;15337;48.202;12.770;2022-09-12T07:03:37;13.40;99.90
4364;DHT22;15337;48.202;12.770;2022-09-12T07:06:06;13.60;99.90
4364;DHT22;15337;48.202;12.770;2022-09-12T07:08:34;13.70;99.90
4364;DHT22;15337;48.202;12.770;2022-09-12T07:11:08;13.90;99.90
4364;DHT22;15337;48.202;12.770;2022-09-12T07:13:35;14.00;99.90
4364;DHT22;15337;48.202;12.770;2022-09-12T07:16:02;14.10;99.90
4364;DHT22;15337;48.202;12.770;2022-09-12T07:18:31;14.20;99.90
4364;DHT22;15337;48.202;12.770;2022-09-12T07:20:59;14.40;99.90
4364;DHT22;15337;48.202;12.770;2022-09-12T07:23:26;14.50;99.90
4364;DHT22;15337;48.202;12.770;2022-09-12T07:25:54;14.60;99.90
4364;DHT22;15337;48.202;12.770;2022-09-12T07:28:21;14.70;99.90
4364;DHT22;15337;48.202;12.770;2022-09-12T07:30:49;14.80;99.90
4364;DHT22;15337;48.202;12.770;2022-09-12T07:33:18;14.90;99.90
4364;DHT22;15337;48.202;12.770;2022-09-12T07:35:46;15.10;99.90
4364;DHT22;15337;48.202;12.770;2022-09-12T07:38:14;15.20;99.90
4364;DHT22;15337;48.202;12.770;2022-09-12T07:40:41;15.20;99.90
4364;DHT22;15337;48.202;12.770;2022-09-12T07:43:08;15.30;99.90
4364;DHT22;15337;48.202;12.770;2022-09-12T07:45:35;15.40;99.90
4364;DHT22;15337;48.202;12.770;2022-09-12T07:48:02;15.50;99.90
4364;DHT22;15337;48.202;12.770;2022-09-12T07:50:29;15.60;99.90
4364;DHT22;15337;48.202;12.770;2022-09-12T07:52:57;15.80;99.90
4364;DHT22;15337;48.202;12.770;2022-09-12T07:55:24;15.90;99.90
4364;DHT22;15337;48.202;12.770;2022-09-12T07:57:51;16.00;99.90
4364;DHT22;15337;48.202;12.770;2022-09-12T08:00:18;16.10;99.90
4364;DHT22;15337;48.202;12.770;2022-09-12T08:02:49;16.20;99.90
4364;DHT22;15337;48.202;12.770;2022-09-12T08:05:17;16.30;99.90
4364;DHT22;15337;48.202;12.770;2022-09-12T08:07:43;16.40;99.90
4364;DHT22;15337;48.202;12.770;2022-09-12T08:10:12;16.50;99.90
4364;DHT22;15337;48.202;12.770;2022-09-12T08:12:38;16.70;99.90
4364;DHT22;15337;48.202;12.770;2022-09-12T08:15:06;16.70;99.90
4364;DHT22;15337;48.202;12.770;2022-09-12T08:17:33;16.90;99.90
4364;DHT22;15337;48.202;12.770;2022-09-12T08:20:01;17.00;99.90
4364;DHT22;15337;48.202;12.770;2022-09-12T08:22:29;17.20;99.90
4364;DHT22;15337;48.202;12.770;2022-09-12T08:24:56;17.30;99.90
4364;DHT22;15337;48.202;12.770;2022-09-12T08:27:25;17.30;99.90
4364;DHT22;15337;48.202;12.770;2022-09-12T08:29:51;17.50;99.90
4364;DHT22;15337;48.202;12.770;2022-09-12T08:32:19;17.70;99.90
4364;DHT22;15337;48.202;12.770;2022-09-12T08:34:46;17.80;99.90
4364;DHT22;15337;48.202;12.770;2022-09-12T08:37:13;18.00;99.90
4364;DHT22;15337;48.202;12.770;2022-09-12T08:39:40;18.20;99.90
4364;DHT22;15337;48.202;12.770;2022-09-12T08:42:09;18.40;99.90
4364;DHT22;15337;48.202;12.770;2022-09-12T08:45:01;18.50;99.90
4364;DHT22;15337;48.202;12.770;2022-09-12T08:47:32;18.70;99.90
4364;DHT22;15337;48.202;12.770;2022-09-12T08:50:11;18.90;99.90
4364;DHT22;15337;48.202;12.770;2022-09-12T08:52:45;19.10;99.90
4364;DHT22;15337;48.202;12.770;2022-09-12T08:55:25;19.30;99.90
4364;DHT22;15337;48.202;12.770;2022-09-12T08:57:53;19.40;99.90
4364;DHT22;15337;48.202;12.770;2022-09-12T09:00:22;19.60;99.90
4364;DHT22;15337;48.202;12.770;2022-09-12T09:03:07;20.00;99.90
4364;DHT22;15337;48.202;12.770;2022-09-12T09:05:46;20.20;99.90
4364;DHT22;15337;48.202;12.770;2022-09-12T09:08:33;20.40;99.90
4364;DHT22;15337;48.202;12.770;2022-09-12T09:11:12;20.60;98.10
4364;DHT22;15337;48.202;12.770;2022-09-12T09:13:52;20.80;96.20
4364;DHT22;15337;48.202;12.770;2022-09-12T09:16:42;20.80;96.40
4364;DHT22;15337;48.202;12.770;2022-09-12T09:19:15;21.00;98.00
4364;DHT22;15337;48.202;12.770;2022-09-12T09:21:48;21.30;98.00
4364;DHT22;15337;48.202;12.770;2022-09-12T09:24:18;21.60;98.50
4364;DHT22;15337;48.202;12.770;2022-09-12T09:26:52;21.80;95.90
4364;DHT22;15337;48.202;12.770;2022-09-12T09:29:23;21.90;93.40
4364;DHT22;15337;48.202;12.770;2022-09-12T09:31:55;22.10;94.80
4364;DHT22;15337;48.202;12.770;2022-09-12T09:34:25;22.20;93.60
4364;DHT22;15337;48.202;12.770;2022-09-12T09:37:00;22.20;94.70
4364;DHT22;15337;48.202;12.770;2022-09-12T09:39:42;22.40;93.90
4364;DHT22;15337;48.202;12.770;2022-09-12T09:42:19;22.50;92.00
4364;DHT22;15337;48.202;12.770;2022-09-12T09:44:52;22.50;92.30
4364;DHT22;15337;48.202;12.770;2022-09-12T09:47:21;22.60;90.90
4364;DHT22;15337;48.202;12.770;2022-09-12T09:49:48;22.70;91.00
4364;DHT22;15337;48.202;12.770;2022-09-12T09:52:25;22.60;90.10
4364;DHT22;15337;48.202;12.770;2022-09-12T09:54:56;22.80;91.40
4364;DHT22;15337;48.202;12.770;2022-09-12T09:57:41;22.80;90.20
4364;DHT22;15337;48.202;12.770;2022-09-12T10:00:23;22.80;88.50
4364;DHT22;15337;48.202;12.770;2022-09-12T10:05:48;22.90;87.10
4364;DHT22;15337;48.202;12.770;2022-09-12T10:08:23;22.60;87.30
4364;DHT22;15337;48.202;12.770;2022-09-12T10:10:55;22.70;90.10
4364;DHT22;15337;48.202;12.770;2022-09-12T10:13:26;22.70;85.10
4364;DHT22;15337;48.202;12.770;2022-09-12T10:15:56;22.70;84.00
4364;DHT22;15337;48.202;12.770;2022-09-12T10:18:34;22.60;86.40
4364;DHT22;15337;48.202;12.770;2022-09-12T10:21:13;22.70;85.90
4364;DHT22;15337;48.202;12.770;2022-09-12T10:23:41;22.70;83.90
4364;DHT22;15337;48.202;12.770;2022-09-12T10:26:10;22.60;84.10
4364;DHT22;15337;48.202;12.770;2022-09-12T10:28:39;22.60;87.90
4364;DHT22;15337;48.202;12.770;2022-09-12T10:31:08;22.60;86.60
4364;DHT22;15337;48.202;12.770;2022-09-12T10:33:41;22.60;89.00
4364;DHT22;15337;48.202;12.770;2022-09-12T10:36:08;22.50;85.10
4364;DHT22;15337;48.202;12.770;2022-09-12T10:38:36;22.40;84.90
4364;DHT22;15337;48.202;12.770;2022-09-12T10:41:04;22.50;86.40
4364;DHT22;15337;48.202;12.770;2022-09-12T10:43:34;22.50;84.30
4364;DHT22;15337;48.202;12.770;2022-09-12T10:46:25;22.50;82.70
4364;DHT22;15337;48.202;12.770;2022-09-12T10:49:13;22.50;83.20
4364;DHT22;15337;48.202;12.770;2022-09-12T10:51:43;22.40;83.10
4364;DHT22;15337;48.202;12.770;2022-09-12T10:54:11;22.40;84.40
4364;DHT22;15337;48.202;12.770;2022-09-12T10:56:41;22.30;79.60
4364;DHT22;15337;48.202;12.770;2022-09-12T10:59:23;22.20;79.70
4364;DHT22;15337;48.202;12.770;2022-09-12T11:01:59;22.20;79.40
4364;DHT22;15337;48.202;12.770;2022-09-12T11:04:38;22.10;81.70
4364;DHT22;15337;48.202;12.770;2022-09-12T11:07:31;22.10;79.50
4364;DHT22;15337;48.202;12.770;2022-09-12T11:10:10;22.00;78.30
4364;DHT22;15337;48.202;12.770;2022-09-12T11:12:44;22.00;80.10
4364;DHT22;15337;48.202;12.770;2022-09-12T11:15:28;21.90;80.40
4364;DHT22;15337;48.202;12.770;2022-09-12T11:18:03;22.00;80.50
4364;DHT22;15337;48.202;12.770;2022-09-12T11:20:47;22.10;80.90
4364;DHT22;15337;48.202;12.770;2022-09-12T11:26:27;22.30;81.80
4364;DHT22;15337;48.202;12.770;2022-09-12T11:29:05;22.20;77.10
4364;DHT22;15337;48.202;12.770;2022-09-12T11:32:00;22.10;75.90
4364;DHT22;15337;48.202;12.770;2022-09-12T11:34:36;22.10;76.00
4364;DHT22;15337;48.202;12.770;2022-09-12T11:37:28;22.20;78.00
4364;DHT22;15337;48.202;12.770;2022-09-12T11:40:04;22.30;76.80
4364;DHT22;15337;48.202;12.770;2022-09-12T11:42:36;22.30;78.50
4364;DHT22;15337;48.202;12.770;2022-09-12T11:45:24;22.30;78.40
4364;DHT22;15337;48.202;12.770;2022-09-12T11:47:56;22.40;80.20
4364;DHT22;15337;48.202;12.770;2022-09-12T11:50:27;22.40;75.40
4364;DHT22;15337;48.202;12.770;2022-09-12T11:53:01;22.30;76.90
4364;DHT22;15337;48.202;12.770;2022-09-12T11:55:35;22.30;76.00
4364;DHT22;15337;48.202;12.770;2022-09-12T11:58:07;22.40;79.10
4364;DHT22;15337;48.202;12.770;2022-09-12T12:00:38;22.40;76.70
4364;DHT22;15337;48.202;12.770;2022-09-12T12:03:11;22.30;73.50
4364;DHT22;15337;48.202;12.770;2022-09-12T12:05:42;22.30;76.00
4364;DHT22;15337;48.202;12.770;2022-09-12T12:08:13;22.20;75.00
4364;DHT22;15337;48.202;12.770;2022-09-12T12:10:42;22.30;74.90
4364;DHT22;15337;48.202;12.770;2022-09-12T12:13:18;22.30;78.90
4364;DHT22;15337;48.202;12.770;2022-09-12T12:15:46;22.30;74.30
4364;DHT22;15337;48.202;12.770;2022-09-12T12:18:16;22.30;74.50
4364;DHT22;15337;48.202;12.770;2022-09-12T12:20:44;22.40;77.10
4364;DHT22;15337;48.202;12.770;2022-09-12T12:23:26;22.40;74.30
4364;DHT22;15337;48.202;12.770;2022-09-12T12:25:56;22.50;75.00
4364;DHT22;15337;48.202;12.770;2022-09-12T12:28:55;22.50;72.90
4364;DHT22;15337;48.202;12.770;2022-09-12T12:31:23;22.50;74.20
4364;DHT22;15337;48.202;12.770;2022-09-12T12:34:19;22.40;73.30
4364;DHT22;15337;48.202;12.770;2022-09-12T12:36:47;22.40;73.90
4364;DHT22;15337;48.202;12.770;2022-09-12T12:42:57;22.50;69.20
4364;DHT22;15337;48.202;12.770;2022-09-12T12:45:47;22.50;70.40
4364;DHT22;15337;48.202;12.770;2022-09-12T12:48:15;22.60;71.70
4364;DHT22;15337;48.202;12.770;2022-09-12T12:50:45;22.60;74.70
4364;DHT22;15337;48.202;12.770;2022-09-12T12:53:19;22.70;72.40
4364;DHT22;15337;48.202;12.770;2022-09-12T12:55:50;22.80;76.00
4364;DHT22;15337;48.202;12.770;2022-09-12T12:58:29;22.80;71.90
4364;DHT22;15337;48.202;12.770;2022-09-12T13:01:10;22.90;73.30
4364;DHT22;15337;48.202;12.770;2022-09-12T13:03:40;22.90;75.50
4364;DHT22;15337;48.202;12.770;2022-09-12T13:06:25;23.00;72.40
4364;DHT22;15337;48.202;12.770;2022-09-12T13:08:58;23.10;72.10
4364;DHT22;15337;48.202;12.770;2022-09-12T13:11:31;23.10;71.50
4364;DHT22;15337;48.202;12.770;2022-09-12T13:14:02;23.20;71.60
4364;DHT22;15337;48.202;12.770;2022-09-12T13:16:32;23.30;71.80
4364;DHT22;15337;48.202;12.770;2022-09-12T13:19:05;23.30;69.20
4364;DHT22;15337;48.202;12.770;2022-09-12T13:21:33;23.40;68.00
4364;DHT22;15337;48.202;12.770;2022-09-12T13:24:03;23.50;72.10
4364;DHT22;15337;48.202;12.770;2022-09-12T13:26:34;23.70;69.00
4364;DHT22;15337;48.202;12.770;2022-09-12T13:29:16;23.80;69.00
4364;DHT22;15337;48.202;12.770;2022-09-12T13:31:45;23.80;68.30
4364;DHT22;15337;48.202;12.770;2022-09-12T13:34:17;23.80;71.40
4364;DHT22;15337;48.202;12.770;2022-09-12T13:40:04;24.00;69.40
4364;DHT22;15337;48.202;12.770;2022-09-12T13:42:41;24.00;68.40
4364;DHT22;15337;48.202;12.770;2022-09-12T13:45:14;24.10;70.60
4364;DHT22;15337;48.202;12.770;2022-09-12T13:47:45;24.10;70.10
4364;DHT22;15337;48.202;12.770;2022-09-12T13:50:16;24.20;69.40
4364;DHT22;15337;48.202;12.770;2022-09-12T13:52:47;24.10;69.70
4364;DHT22;15337;48.202;12.770;2022-09-12T13:55:27;24.20;69.50
4364;DHT22;15337;48.202;12.770;2022-09-12T13:57:59;24.20;69.40
4364;DHT22;15337;48.202;12.770;2022-09-12T14:00:29;24.30;70.90
4364;DHT22;15337;48.202;12.770;2022-09-12T14:02:57;24.30;70.10
4364;DHT22;15337;48.202;12.770;2022-09-12T14:05:45;24.30;69.00
4364;DHT22;15337;48.202;12.770;2022-09-12T14:08:13;24.30;69.70
4364;DHT22;15337;48.202;12.770;2022-09-12T14:10:42;24.20;67.70
4364;DHT22;15337;48.202;12.770;2022-09-12T14:13:15;24.30;67.80
4364;DHT22;15337;48.202;12.770;2022-09-12T14:15:47;24.40;68.90
4364;DHT22;15337;48.202;12.770;2022-09-12T14:18:23;24.50;69.00
4364;DHT22;15337;48.202;12.770;2022-09-12T14:20:51;24.60;66.80
4364;DHT22;15337;48.202;12.770;2022-09-12T14:23:23;24.70;68.20
4364;DHT22;15337;48.202;12.770;2022-09-12T14:25:52;24.80;68.20
4364;DHT22;15337;48.202;12.770;2022-09-12T14:28:20;24.70;65.80
4364;DHT22;15337;48.202;12.770;2022-09-12T14:31:00;24.80;66.90
4364;DHT22;15337;48.202;12.770;2022-09-12T14:33:30;24.90;66.70
4364;DHT22;15337;48.202;12.770;2022-09-12T14:36:14;24.90;62.20
4364;DHT22;15337;48.202;12.770;2022-09-12T14:38:46;25.20;67.50
4364;DHT22;15337;48.202;12.770;2022-09-12T14:41:22;25.20;66.20
4364;DHT22;15337;48.202;12.770;2022-09-12T14:43:52;25.20;65.40
4364;DHT22;15337;48.202;12.770;2022-09-12T14:46:25;25.20;65.70
4364;DHT22;15337;48.202;12.770;2022-09-12T14:48:57;25.20;66.20
4364;DHT22;15337;48.202;12.770;2022-09-12T14:51:32;25.10;64.90
4364;DHT22;15337;48.202;12.770;2022-09-12T14:54:00;25.00;65.00
4364;DHT22;15337;48.202;12.770;2022-09-12T14:56:38;24.80;65.00
4364;DHT22;15337;48.202;12.770;2022-09-12T14:59:26;24.80;66.30
4364;DHT22;15337;48.202;12.770;2022-09-12T15:02:25;24.90;64.50
4364;DHT22;15337;48.202;12.770;2022-09-12T15:04:53;24.80;63.90
4364;DHT22;15337;48.202;12.770;2022-09-12T15:07:30;24.80;65.30
4364;DHT22;15337;48.202;12.770;2022-09-12T15:09:59;24.90;64.20
4364;DHT22;15337;48.202;12.770;2022-09-12T15:12:26;25.20;64.30
4364;DHT22;15337;48.202;12.770;2022-09-12T15:14:57;25.20;63.90
4364;DHT22;15337;48.202;12.770;2022-09-12T15:17:26;25.20;63.40
4364;DHT22;15337;48.202;12.770;2022-09-12T15:19:53;25.10;63.50
4364;DHT22;15337;48.202;12.770;2022-09-12T15:22:22;25.10;63.20
4364;DHT22;15337;48.202;12.770;2022-09-12T15:24:50;25.00;62.20
4364;DHT22;15337;48.202;12.770;2022-09-12T15:27:18;24.80;61.30
4364;DHT22;15337;48.202;12.770;2022-09-12T15:29:44;24.60;61.40
4364;DHT22;15337;48.202;12.770;2022-09-12T15:32:22;24.60;62.20
4364;DHT22;15337;48.202;12.770;2022-09-12T15:34:51;24.50;61.80
4364;DHT22;15337;48.202;12.770;2022-09-12T15:37:19;24.40;62.50
4364;DHT22;15337;48.202;12.770;2022-09-12T15:39:46;24.40;62.70
4364;DHT22;15337;48.202;12.770;2022-09-12T15:42:14;24.40;62.10
4364;DHT22;15337;48.202;12.770;2022-09-12T15:44:42;24.30;63.30
4364;DHT22;15337;48.202;12.770;2022-09-12T15:47:11;24.30;63.80
4364;DHT22;15337;48.202;12.770;2022-09-12T15:49:39;24.30;63.20
4364;DHT22;15337;48.202;12.770;2022-09-12T15:52:13;24.30;64.30
4364;DHT22;15337;48.202;12.770;2022-09-12T15:54:40;24.30;67.30
4364;DHT22;15337;48.202;12.770;2022-09-12T15:57:07;24.20;66.80
4364;DHT22;15337;48.202;12.770;2022-09-12T15:59:35;24.10;67.80
4364;DHT22;15337;48.202;12.770;2022-09-12T16:02:02;24.10;66.80
4364;DHT22;15337;48.202;12.770;2022-09-12T16:04:29;24.00;67.30
4364;DHT22;15337;48.202;12.770;2022-09-12T16:06:56;23.90;68.40
4364;DHT22;15337;48.202;12.770;2022-09-12T16:09:25;23.80;66.80
4364;DHT22;15337;48.202;12.770;2022-09-12T16:11:52;23.70;66.80